TimeEDT,TemperatureF,Dew PointF,Humidity,Sea Level PressureIn,VisibilityMPH,Wind Direction,Wind SpeedMPH,Gust SpeedMPH,PrecipitationIn,Events,Conditions,WindDirDegrees,DateUTC
12:53 AM,42.1,30.0,62,30.35,10.0,ESE,8.1,-,N/A,,Clear,110,2011-11-05 04:53:00
1:53 AM,41.0,28.9,62,30.35,10.0,ESE,5.8,-,N/A,,Clear,110,2011-11-05 05:53:00
2:53 AM,39.9,28.0,63,30.36,10.0,East,4.6,-,N/A,,Clear,80,2011-11-05 06:53:00
3:53 AM,39.0,28.0,65,30.35,10.0,ESE,6.9,-,N/A,,Clear,110,2011-11-05 07:53:00
4:53 AM,37.4,26.6,65,30.34,10.0,SE,4.6,-,N/A,,Clear,140,2011-11-05 08:53:00
5:53 AM,37.0,26.1,65,30.35,10.0,SSE,5.8,-,N/A,,Clear,150,2011-11-05 09:53:00
6:53 AM,36.0,26.1,67,30.37,10.0,Calm,Calm,-,N/A,,Clear,0,2011-11-05 10:53:00
7:53 AM,34.0,26.1,73,30.38,10.0,Calm,Calm,-,N/A,,Clear,0,2011-11-05 11:53:00
9:53 AM,39.9,26.1,58,30.37,10.0,SE,11.5,21.9,N/A,,Clear,140,2011-11-05 13:53:00
10:53 AM,44.1,25.0,47,30.38,10.0,SE,9.2,-,N/A,,Clear,140,2011-11-05 14:53:00
11:53 AM,46.9,23.0,39,30.39,10.0,South,8.1,-,N/A,,Clear,170,2011-11-05 15:53:00
12:53 PM,50.0,21.9,33,30.37,10.0,SSE,6.9,-,N/A,,Clear,160,2011-11-05 16:53:00
1:53 PM,53.1,21.0,29,30.34,10.0,ESE,9.2,-,N/A,,Clear,120,2011-11-05 17:53:00
2:53 PM,55.0,19.9,25,30.32,10.0,ESE,4.6,-,N/A,,Clear,120,2011-11-05 18:53:00
3:53 PM,53.6,37.4,54,30.29,10.0,North,10.4,-,N/A,,Clear,10,2011-11-05 19:53:00
4:53 PM,55.9,19.9,25,30.29,10.0,SE,5.8,-,N/A,,Clear,130,2011-11-05 20:53:00
5:53 PM,54.0,21.0,28,30.27,10.0,SE,9.2,-,N/A,,Clear,130,2011-11-05 21:53:00
6:53 PM,52.0,21.0,30,30.27,10.0,SE,5.8,-,N/A,,Clear,130,2011-11-05 22:53:00
7:53 PM,50.0,23.0,35,30.28,10.0,Calm,Calm,-,N/A,,Clear,0,2011-11-05 23:53:00
8:53 PM,48.0,21.0,34,30.27,10.0,SE,3.5,-,N/A,,Clear,130,2011-11-06 00:53:00
9:53 PM,46.9,21.0,36,30.27,10.0,SSE,5.8,-,N/A,,Clear,160,2011-11-06 01:53:00
10:53 PM,48.0,21.0,34,30.26,10.0,SSE,12.7,-,N/A,,Clear,160,2011-11-06 02:53:00